Terminal Aerodrome Forecast
Issued by NWS

Home | Current Version | Previous Version | Graphics & Text | Print | Product List | Glossary On
Versions: 1 2 3 4 5 6 7 8 9 10 11 12 13 14 15 16 17 18 19
000
FTUS43 KICT 262324
TAFRSL
TAF
KRSL 262324Z 2700/2724 16011KT P6SM SCT250
     FM270600 17010KT P6SM VCTS BKN100CB
     FM271000 17008KT P6SM SCT100 BKN250
     FM271500 17014KT P6SM SCT250
     FM271800 18020G27KT P6SM SCT250=

USA.gov is the U.S. government's official web portal to all federal, state and local government web resources and services.